sensor_id;sensor_type;location;lat;lon;timestamp;P1;durP1;ratioP1;P2;durP2;ratioP2
52838;SDS011;39219;53.678;9.856;2023-04-16T00:02:00;30.90;;;16.98;;
52838;SDS011;39219;53.678;9.856;2023-04-16T00:04:27;28.85;;;16.05;;
52838;SDS011;39219;53.678;9.856;2023-04-16T00:06:53;29.58;;;16.10;;
52838;SDS011;39219;53.678;9.856;2023-04-16T00:09:20;26.38;;;15.32;;
52838;SDS011;39219;53.678;9.856;2023-04-16T00:11:48;27.13;;;15.45;;
52838;SDS011;39219;53.678;9.856;2023-04-16T00:14:14;27.48;;;15.98;;
52838;SDS011;39219;53.678;9.856;2023-04-16T00:16:40;30.33;;;16.52;;
52838;SDS011;39219;53.678;9.856;2023-04-16T00:19:07;28.25;;;15.88;;
52838;SDS011;39219;53.678;9.856;2023-04-16T00:21:33;31.75;;;16.08;;
52838;SDS011;39219;53.678;9.856;2023-04-16T00:24:00;29.65;;;16.15;;
52838;SDS011;39219;53.678;9.856;2023-04-16T00:26:26;29.02;;;15.65;;
52838;SDS011;39219;53.678;9.856;2023-04-16T00:28:54;31.98;;;16.30;;
52838;SDS011;39219;53.678;9.856;2023-04-16T00:31:25;29.88;;;16.98;;
52838;SDS011;39219;53.678;9.856;2023-04-16T00:33:52;30.45;;;17.45;;
52838;SDS011;39219;53.678;9.856;2023-04-16T00:36:19;30.85;;;16.70;;
52838;SDS011;39219;53.678;9.856;2023-04-16T00:38:45;31.17;;;16.88;;
52838;SDS011;39219;53.678;9.856;2023-04-16T00:41:12;28.02;;;16.13;;
52838;SDS011;39219;53.678;9.856;2023-04-16T00:43:38;27.73;;;16.45;;
52838;SDS011;39219;53.678;9.856;2023-04-16T00:46:06;29.58;;;16.65;;
52838;SDS011;39219;53.678;9.856;2023-04-16T00:48:33;33.10;;;16.63;;
52838;SDS011;39219;53.678;9.856;2023-04-16T00:51:02;28.55;;;16.45;;
52838;SDS011;39219;53.678;9.856;2023-04-16T00:53:30;33.63;;;17.38;;
52838;SDS011;39219;53.678;9.856;2023-04-16T00:55:57;28.95;;;16.88;;
52838;SDS011;39219;53.678;9.856;2023-04-16T00:58:23;29.35;;;15.75;;
52838;SDS011;39219;53.678;9.856;2023-04-16T01:00:50;29.42;;;16.02;;
52838;SDS011;39219;53.678;9.856;2023-04-16T01:03:18;27.20;;;15.88;;
52838;SDS011;39219;53.678;9.856;2023-04-16T01:05:45;27.08;;;16.13;;
52838;SDS011;39219;53.678;9.856;2023-04-16T01:08:14;29.83;;;15.98;;
52838;SDS011;39219;53.678;9.856;2023-04-16T01:10:42;29.08;;;16.75;;
52838;SDS011;39219;53.678;9.856;2023-04-16T01:13:09;29.38;;;15.85;;
52838;SDS011;39219;53.678;9.856;2023-04-16T01:15:35;29.85;;;16.70;;
52838;SDS011;39219;53.678;9.856;2023-04-16T01:18:02;29.40;;;15.85;;
52838;SDS011;39219;53.678;9.856;2023-04-16T01:23:02;27.23;;;15.70;;
52838;SDS011;39219;53.678;9.856;2023-04-16T01:25:29;27.90;;;15.55;;
52838;SDS011;39219;53.678;9.856;2023-04-16T01:27:55;29.15;;;16.08;;
52838;SDS011;39219;53.678;9.856;2023-04-16T01:30:23;28.05;;;15.35;;
52838;SDS011;39219;53.678;9.856;2023-04-16T01:32:49;28.75;;;15.30;;
52838;SDS011;39219;53.678;9.856;2023-04-16T01:35:16;29.42;;;15.73;;
52838;SDS011;39219;53.678;9.856;2023-04-16T01:37:44;29.35;;;16.02;;
52838;SDS011;39219;53.678;9.856;2023-04-16T01:40:10;27.92;;;15.40;;
52838;SDS011;39219;53.678;9.856;2023-04-16T01:42:37;28.35;;;16.58;;
52838;SDS011;39219;53.678;9.856;2023-04-16T01:45:04;29.38;;;16.80;;
52838;SDS011;39219;53.678;9.856;2023-04-16T01:47:31;25.90;;;15.20;;
52838;SDS011;39219;53.678;9.856;2023-04-16T01:49:58;27.23;;;15.25;;
52838;SDS011;39219;53.678;9.856;2023-04-16T01:52:24;27.70;;;15.57;;
52838;SDS011;39219;53.678;9.856;2023-04-16T01:54:52;27.05;;;15.25;;
52838;SDS011;39219;53.678;9.856;2023-04-16T01:57:19;30.48;;;15.93;;
52838;SDS011;39219;53.678;9.856;2023-04-16T01:59:45;29.58;;;15.70;;
52838;SDS011;39219;53.678;9.856;2023-04-16T02:02:12;28.33;;;15.38;;
52838;SDS011;39219;53.678;9.856;2023-04-16T02:04:42;27.80;;;16.40;;
52838;SDS011;39219;53.678;9.856;2023-04-16T02:07:10;28.50;;;16.45;;
52838;SDS011;39219;53.678;9.856;2023-04-16T02:09:37;29.40;;;16.08;;
52838;SDS011;39219;53.678;9.856;2023-04-16T02:12:06;29.85;;;17.30;;
52838;SDS011;39219;53.678;9.856;2023-04-16T02:14:35;30.80;;;16.92;;
52838;SDS011;39219;53.678;9.856;2023-04-16T02:17:01;29.85;;;16.48;;
52838;SDS011;39219;53.678;9.856;2023-04-16T02:19:28;31.55;;;16.33;;
52838;SDS011;39219;53.678;9.856;2023-04-16T02:21:55;31.35;;;17.13;;
52838;SDS011;39219;53.678;9.856;2023-04-16T02:24:21;29.75;;;17.17;;
52838;SDS011;39219;53.678;9.856;2023-04-16T02:26:47;31.35;;;17.13;;
52838;SDS011;39219;53.678;9.856;2023-04-16T02:29:15;31.40;;;16.60;;
52838;SDS011;39219;53.678;9.856;2023-04-16T02:31:42;32.53;;;17.05;;
52838;SDS011;39219;53.678;9.856;2023-04-16T02:34:08;33.30;;;17.05;;
52838;SDS011;39219;53.678;9.856;2023-04-16T02:36:35;33.10;;;17.52;;
52838;SDS011;39219;53.678;9.856;2023-04-16T02:39:01;31.63;;;16.33;;
52838;SDS011;39219;53.678;9.856;2023-04-16T02:41:28;30.50;;;16.45;;
52838;SDS011;39219;53.678;9.856;2023-04-16T02:43:54;29.40;;;16.63;;
52838;SDS011;39219;53.678;9.856;2023-04-16T02:46:22;34.90;;;16.58;;
52838;SDS011;39219;53.678;9.856;2023-04-16T02:48:49;28.75;;;15.90;;
52838;SDS011;39219;53.678;9.856;2023-04-16T02:51:15;30.83;;;15.90;;
52838;SDS011;39219;53.678;9.856;2023-04-16T02:53:42;31.02;;;16.30;;
52838;SDS011;39219;53.678;9.856;2023-04-16T02:56:10;30.90;;;16.75;;
52838;SDS011;39219;53.678;9.856;2023-04-16T02:58:37;28.33;;;15.80;;
52838;SDS011;39219;53.678;9.856;2023-04-16T03:01:03;30.40;;;16.48;;
52838;SDS011;39219;53.678;9.856;2023-04-16T03:03:31;29.17;;;15.73;;
52838;SDS011;39219;53.678;9.856;2023-04-16T03:05:58;29.05;;;15.90;;
52838;SDS011;39219;53.678;9.856;2023-04-16T03:08:24;27.42;;;15.60;;
52838;SDS011;39219;53.678;9.856;2023-04-16T03:10:51;27.90;;;14.77;;
52838;SDS011;39219;53.678;9.856;2023-04-16T03:13:18;29.95;;;15.55;;
52838;SDS011;39219;53.678;9.856;2023-04-16T03:15:46;27.60;;;14.98;;
52838;SDS011;39219;53.678;9.856;2023-04-16T03:18:13;30.25;;;15.40;;
52838;SDS011;39219;53.678;9.856;2023-04-16T03:20:41;26.70;;;15.15;;
52838;SDS011;39219;53.678;9.856;2023-04-16T03:23:08;26.65;;;15.00;;
52838;SDS011;39219;53.678;9.856;2023-04-16T03:25:34;28.23;;;16.02;;
52838;SDS011;39219;53.678;9.856;2023-04-16T03:28:00;28.60;;;15.75;;
52838;SDS011;39219;53.678;9.856;2023-04-16T03:30:28;26.02;;;15.38;;
52838;SDS011;39219;53.678;9.856;2023-04-16T03:32:54;30.63;;;15.70;;
52838;SDS011;39219;53.678;9.856;2023-04-16T03:35:20;28.50;;;15.27;;
52838;SDS011;39219;53.678;9.856;2023-04-16T03:37:48;27.80;;;15.80;;
52838;SDS011;39219;53.678;9.856;2023-04-16T03:40:15;26.63;;;15.60;;
52838;SDS011;39219;53.678;9.856;2023-04-16T03:42:42;29.42;;;15.43;;
52838;SDS011;39219;53.678;9.856;2023-04-16T03:45:08;26.55;;;15.23;;
52838;SDS011;39219;53.678;9.856;2023-04-16T03:47:35;30.23;;;15.95;;
52838;SDS011;39219;53.678;9.856;2023-04-16T03:50:02;29.60;;;16.27;;
52838;SDS011;39219;53.678;9.856;2023-04-16T03:52:28;26.08;;;14.88;;
52838;SDS011;39219;53.678;9.856;2023-04-16T03:54:56;27.85;;;15.70;;
52838;SDS011;39219;53.678;9.856;2023-04-16T03:57:23;26.80;;;15.32;;
52838;SDS011;39219;53.678;9.856;2023-04-16T03:59:49;26.13;;;15.02;;
52838;SDS011;39219;53.678;9.856;2023-04-16T04:02:16;26.52;;;15.60;;
52838;SDS011;39219;53.678;9.856;2023-04-16T04:04:42;26.40;;;15.02;;
52838;SDS011;39219;53.678;9.856;2023-04-16T04:07:09;27.17;;;14.90;;
52838;SDS011;39219;53.678;9.856;2023-04-16T04:09:35;28.23;;;15.40;;
52838;SDS011;39219;53.678;9.856;2023-04-16T04:12:03;28.05;;;14.95;;
52838;SDS011;39219;53.678;9.856;2023-04-16T04:14:30;30.35;;;16.45;;
52838;SDS011;39219;53.678;9.856;2023-04-16T04:16:56;30.23;;;15.63;;
52838;SDS011;39219;53.678;9.856;2023-04-16T04:19:22;30.25;;;15.48;;
52838;SDS011;39219;53.678;9.856;2023-04-16T04:21:49;30.83;;;15.27;;
52838;SDS011;39219;53.678;9.856;2023-04-16T04:24:15;24.80;;;14.48;;
52838;SDS011;39219;53.678;9.856;2023-04-16T04:26:42;26.60;;;15.27;;
52838;SDS011;39219;53.678;9.856;2023-04-16T04:29:09;29.88;;;16.02;;
52838;SDS011;39219;53.678;9.856;2023-04-16T04:31:36;30.70;;;15.82;;
52838;SDS011;39219;53.678;9.856;2023-04-16T04:34:03;26.80;;;15.85;;
52838;SDS011;39219;53.678;9.856;2023-04-16T04:36:29;28.15;;;16.20;;
52838;SDS011;39219;53.678;9.856;2023-04-16T04:38:56;27.67;;;15.60;;
52838;SDS011;39219;53.678;9.856;2023-04-16T04:41:22;28.42;;;15.77;;
52838;SDS011;39219;53.678;9.856;2023-04-16T04:43:50;28.67;;;14.90;;
52838;SDS011;39219;53.678;9.856;2023-04-16T04:46:18;28.35;;;15.23;;
52838;SDS011;39219;53.678;9.856;2023-04-16T04:48:45;30.13;;;15.73;;
52838;SDS011;39219;53.678;9.856;2023-04-16T04:51:11;30.70;;;16.33;;
52838;SDS011;39219;53.678;9.856;2023-04-16T04:53:38;27.27;;;15.43;;
52838;SDS011;39219;53.678;9.856;2023-04-16T04:56:04;29.52;;;16.30;;
52838;SDS011;39219;53.678;9.856;2023-04-16T04:58:31;29.60;;;15.65;;
52838;SDS011;39219;53.678;9.856;2023-04-16T05:00:58;28.45;;;16.00;;
52838;SDS011;39219;53.678;9.856;2023-04-16T05:03:25;30.17;;;15.85;;
52838;SDS011;39219;53.678;9.856;2023-04-16T05:05:52;29.23;;;15.45;;
52838;SDS011;39219;53.678;9.856;2023-04-16T05:08:18;27.27;;;15.70;;
52838;SDS011;39219;53.678;9.856;2023-04-16T05:10:45;29.73;;;16.52;;
52838;SDS011;39219;53.678;9.856;2023-04-16T05:13:11;29.98;;;16.58;;
52838;SDS011;39219;53.678;9.856;2023-04-16T05:15:38;29.40;;;16.00;;
52838;SDS011;39219;53.678;9.856;2023-04-16T05:18:04;30.85;;;16.90;;
52838;SDS011;39219;53.678;9.856;2023-04-16T05:23:01;29.20;;;16.63;;
52838;SDS011;39219;53.678;9.856;2023-04-16T05:25:28;29.58;;;16.60;;
52838;SDS011;39219;53.678;9.856;2023-04-16T05:27:54;30.35;;;16.85;;
52838;SDS011;39219;53.678;9.856;2023-04-16T05:30:21;29.33;;;16.40;;
52838;SDS011;39219;53.678;9.856;2023-04-16T05:32:47;30.00;;;16.60;;
52838;SDS011;39219;53.678;9.856;2023-04-16T05:35:13;29.27;;;15.98;;
52838;SDS011;39219;53.678;9.856;2023-04-16T05:37:41;30.67;;;16.40;;
52838;SDS011;39219;53.678;9.856;2023-04-16T05:40:08;29.40;;;16.42;;
52838;SDS011;39219;53.678;9.856;2023-04-16T05:42:35;27.05;;;15.65;;
52838;SDS011;39219;53.678;9.856;2023-04-16T05:45:01;31.00;;;16.23;;
52838;SDS011;39219;53.678;9.856;2023-04-16T05:47:29;27.13;;;15.85;;
52838;SDS011;39219;53.678;9.856;2023-04-16T05:49:55;29.20;;;15.98;;
52838;SDS011;39219;53.678;9.856;2023-04-16T05:52:22;30.45;;;15.93;;
52838;SDS011;39219;53.678;9.856;2023-04-16T05:54:50;27.48;;;15.82;;
52838;SDS011;39219;53.678;9.856;2023-04-16T05:57:16;28.10;;;15.18;;
52838;SDS011;39219;53.678;9.856;2023-04-16T05:59:42;26.95;;;15.40;;
52838;SDS011;39219;53.678;9.856;2023-04-16T06:02:09;28.98;;;15.93;;
52838;SDS011;39219;53.678;9.856;2023-04-16T06:04:36;27.48;;;15.38;;
52838;SDS011;39219;53.678;9.856;2023-04-16T06:07:02;31.77;;;16.17;;
52838;SDS011;39219;53.678;9.856;2023-04-16T06:09:28;27.40;;;15.32;;
52838;SDS011;39219;53.678;9.856;2023-04-16T06:11:56;28.35;;;15.32;;
52838;SDS011;39219;53.678;9.856;2023-04-16T06:14:23;28.55;;;15.88;;
52838;SDS011;39219;53.678;9.856;2023-04-16T06:16:49;27.60;;;15.35;;
52838;SDS011;39219;53.678;9.856;2023-04-16T06:19:16;25.70;;;14.70;;
52838;SDS011;39219;53.678;9.856;2023-04-16T06:21:42;28.13;;;15.73;;
52838;SDS011;39219;53.678;9.856;2023-04-16T06:24:09;28.13;;;15.27;;
52838;SDS011;39219;53.678;9.856;2023-04-16T06:26:37;28.02;;;14.38;;
52838;SDS011;39219;53.678;9.856;2023-04-16T06:29:05;25.98;;;14.48;;
52838;SDS011;39219;53.678;9.856;2023-04-16T06:31:31;28.35;;;15.45;;
52838;SDS011;39219;53.678;9.856;2023-04-16T06:33:58;30.85;;;15.68;;
52838;SDS011;39219;53.678;9.856;2023-04-16T06:36:24;26.35;;;14.48;;
52838;SDS011;39219;53.678;9.856;2023-04-16T06:38:51;26.48;;;15.13;;
52838;SDS011;39219;53.678;9.856;2023-04-16T06:41:18;26.40;;;14.52;;
52838;SDS011;39219;53.678;9.856;2023-04-16T06:43:45;24.63;;;13.98;;
52838;SDS011;39219;53.678;9.856;2023-04-16T06:46:13;27.20;;;14.20;;
52838;SDS011;39219;53.678;9.856;2023-04-16T06:48:39;28.98;;;14.75;;
52838;SDS011;39219;53.678;9.856;2023-04-16T06:51:05;25.83;;;14.13;;
52838;SDS011;39219;53.678;9.856;2023-04-16T06:53:32;28.17;;;15.38;;
52838;SDS011;39219;53.678;9.856;2023-04-16T06:55:58;27.42;;;14.25;;
52838;SDS011;39219;53.678;9.856;2023-04-16T06:58:25;28.45;;;15.15;;
52838;SDS011;39219;53.678;9.856;2023-04-16T07:00:51;27.08;;;14.32;;
52838;SDS011;39219;53.678;9.856;2023-04-16T07:03:19;27.02;;;15.18;;
52838;SDS011;39219;53.678;9.856;2023-04-16T07:05:45;31.30;;;14.95;;
52838;SDS011;39219;53.678;9.856;2023-04-16T07:08:12;26.80;;;14.90;;
52838;SDS011;39219;53.678;9.856;2023-04-16T07:10:38;24.92;;;14.13;;
52838;SDS011;39219;53.678;9.856;2023-04-16T07:13:05;27.85;;;14.60;;
52838;SDS011;39219;53.678;9.856;2023-04-16T07:15:31;24.23;;;13.88;;
52838;SDS011;39219;53.678;9.856;2023-04-16T07:17:58;26.08;;;14.68;;
52838;SDS011;39219;53.678;9.856;2023-04-16T07:20:26;25.70;;;13.88;;
52838;SDS011;39219;53.678;9.856;2023-04-16T07:22:52;25.42;;;14.45;;
52838;SDS011;39219;53.678;9.856;2023-04-16T07:25:19;25.95;;;13.95;;
52838;SDS011;39219;53.678;9.856;2023-04-16T07:27:45;26.23;;;14.60;;
52838;SDS011;39219;53.678;9.856;2023-04-16T07:30:12;24.45;;;14.05;;
52838;SDS011;39219;53.678;9.856;2023-04-16T07:32:38;25.13;;;13.52;;
52838;SDS011;39219;53.678;9.856;2023-04-16T07:35:05;25.13;;;13.80;;
52838;SDS011;39219;53.678;9.856;2023-04-16T07:37:33;26.52;;;13.82;;
52838;SDS011;39219;53.678;9.856;2023-04-16T07:40:00;21.35;;;13.27;;
52838;SDS011;39219;53.678;9.856;2023-04-16T07:42:26;23.52;;;13.38;;
52838;SDS011;39219;53.678;9.856;2023-04-16T07:44:53;23.05;;;12.98;;
52838;SDS011;39219;53.678;9.856;2023-04-16T07:47:20;22.95;;;12.18;;
52838;SDS011;39219;53.678;9.856;2023-04-16T07:49:47;21.70;;;12.32;;
52838;SDS011;39219;53.678;9.856;2023-04-16T07:52:13;23.35;;;13.20;;
52838;SDS011;39219;53.678;9.856;2023-04-16T07:54:41;23.45;;;13.10;;
52838;SDS011;39219;53.678;9.856;2023-04-16T07:57:07;21.88;;;12.27;;
52838;SDS011;39219;53.678;9.856;2023-04-16T07:59:35;24.70;;;12.80;;
52838;SDS011;39219;53.678;9.856;2023-04-16T08:02:02;21.65;;;12.23;;
52838;SDS011;39219;53.678;9.856;2023-04-16T08:04:30;23.02;;;12.50;;
52838;SDS011;39219;53.678;9.856;2023-04-16T08:06:56;23.25;;;12.50;;
52838;SDS011;39219;53.678;9.856;2023-04-16T08:09:25;21.55;;;12.27;;
52838;SDS011;39219;53.678;9.856;2023-04-16T08:11:53;23.35;;;12.55;;
52838;SDS011;39219;53.678;9.856;2023-04-16T08:14:20;23.65;;;12.80;;
52838;SDS011;39219;53.678;9.856;2023-04-16T08:16:47;20.77;;;12.07;;
52838;SDS011;39219;53.678;9.856;2023-04-16T08:19:13;23.92;;;12.95;;
52838;SDS011;39219;53.678;9.856;2023-04-16T08:21:40;23.33;;;12.65;;
52838;SDS011;39219;53.678;9.856;2023-04-16T08:24:06;21.67;;;12.15;;
52838;SDS011;39219;53.678;9.856;2023-04-16T08:26:33;24.15;;;13.32;;
52838;SDS011;39219;53.678;9.856;2023-04-16T08:29:01;22.02;;;12.35;;
52838;SDS011;39219;53.678;9.856;2023-04-16T08:31:27;21.60;;;11.77;;
52838;SDS011;39219;53.678;9.856;2023-04-16T08:33:54;21.33;;;11.98;;
52838;SDS011;39219;53.678;9.856;2023-04-16T08:36:21;21.48;;;12.40;;
52838;SDS011;39219;53.678;9.856;2023-04-16T08:38:47;22.77;;;12.13;;
52838;SDS011;39219;53.678;9.856;2023-04-16T08:41:14;21.30;;;12.50;;
52838;SDS011;39219;53.678;9.856;2023-04-16T08:43:43;21.73;;;12.30;;
52838;SDS011;39219;53.678;9.856;2023-04-16T08:46:11;21.65;;;12.07;;
52838;SDS011;39219;53.678;9.856;2023-04-16T08:48:40;21.27;;;11.77;;
52838;SDS011;39219;53.678;9.856;2023-04-16T08:51:08;22.42;;;12.63;;
52838;SDS011;39219;53.678;9.856;2023-04-16T08:53:40;22.92;;;11.82;;
52838;SDS011;39219;53.678;9.856;2023-04-16T08:56:13;21.98;;;12.35;;
52838;SDS011;39219;53.678;9.856;2023-04-16T08:58:41;23.15;;;12.88;;
52838;SDS011;39219;53.678;9.856;2023-04-16T09:01:09;22.48;;;12.02;;
52838;SDS011;39219;53.678;9.856;2023-04-16T09:03:37;21.67;;;12.68;;
52838;SDS011;39219;53.678;9.856;2023-04-16T09:06:04;21.83;;;11.93;;
52838;SDS011;39219;53.678;9.856;2023-04-16T09:08:32;22.05;;;11.80;;
52838;SDS011;39219;53.678;9.856;2023-04-16T09:11:00;20.92;;;11.93;;
52838;SDS011;39219;53.678;9.856;2023-04-16T09:13:26;21.02;;;11.43;;
52838;SDS011;39219;53.678;9.856;2023-04-16T09:15:53;27.50;;;13.95;;
52838;SDS011;39219;53.678;9.856;2023-04-16T09:18:21;27.67;;;14.43;;
52838;SDS011;39219;53.678;9.856;2023-04-16T09:20:49;23.60;;;13.95;;
52838;SDS011;39219;53.678;9.856;2023-04-16T09:23:16;22.55;;;12.50;;
52838;SDS011;39219;53.678;9.856;2023-04-16T09:25:43;20.60;;;11.57;;
52838;SDS011;39219;53.678;9.856;2023-04-16T09:28:09;20.40;;;11.68;;
52838;SDS011;39219;53.678;9.856;2023-04-16T09:30:36;22.30;;;11.57;;
52838;SDS011;39219;53.678;9.856;2023-04-16T09:33:12;23.40;;;12.38;;
52838;SDS011;39219;53.678;9.856;2023-04-16T09:35:44;21.48;;;11.65;;
52838;SDS011;39219;53.678;9.856;2023-04-16T09:38:13;19.38;;;11.43;;
52838;SDS011;39219;53.678;9.856;2023-04-16T09:40:39;19.33;;;12.05;;
52838;SDS011;39219;53.678;9.856;2023-04-16T09:43:08;18.88;;;11.25;;
52838;SDS011;39219;53.678;9.856;2023-04-16T09:45:44;20.50;;;12.05;;
52838;SDS011;39219;53.678;9.856;2023-04-16T09:48:14;21.25;;;11.60;;
52838;SDS011;39219;53.678;9.856;2023-04-16T09:50:45;22.73;;;11.88;;
52838;SDS011;39219;53.678;9.856;2023-04-16T09:53:21;21.45;;;12.18;;
52838;SDS011;39219;53.678;9.856;2023-04-16T09:55:48;20.42;;;12.45;;
52838;SDS011;39219;53.678;9.856;2023-04-16T09:58:17;20.83;;;12.30;;
52838;SDS011;39219;53.678;9.856;2023-04-16T10:00:43;21.35;;;12.18;;
52838;SDS011;39219;53.678;9.856;2023-04-16T10:03:10;21.75;;;12.27;;
52838;SDS011;39219;53.678;9.856;2023-04-16T10:05:36;19.58;;;11.57;;
52838;SDS011;39219;53.678;9.856;2023-04-16T10:08:09;21.58;;;11.68;;
52838;SDS011;39219;53.678;9.856;2023-04-16T10:10:38;19.98;;;11.60;;
52838;SDS011;39219;53.678;9.856;2023-04-16T10:13:05;20.63;;;11.70;;
52838;SDS011;39219;53.678;9.856;2023-04-16T10:15:32;21.85;;;11.77;;
52838;SDS011;39219;53.678;9.856;2023-04-16T10:17:59;21.20;;;12.15;;
52838;SDS011;39219;53.678;9.856;2023-04-16T10:20:25;20.00;;;12.23;;
52838;SDS011;39219;53.678;9.856;2023-04-16T10:22:52;20.90;;;11.57;;
52838;SDS011;39219;53.678;9.856;2023-04-16T10:25:19;21.23;;;11.85;;
52838;SDS011;39219;53.678;9.856;2023-04-16T10:27:47;21.13;;;11.00;;
52838;SDS011;39219;53.678;9.856;2023-04-16T10:30:15;20.98;;;11.45;;
52838;SDS011;39219;53.678;9.856;2023-04-16T10:32:43;19.83;;;11.60;;
52838;SDS011;39219;53.678;9.856;2023-04-16T10:35:13;21.13;;;11.32;;
52838;SDS011;39219;53.678;9.856;2023-04-16T10:37:41;19.63;;;11.38;;
52838;SDS011;39219;53.678;9.856;2023-04-16T10:40:20;21.52;;;11.45;;
52838;SDS011;39219;53.678;9.856;2023-04-16T10:42:53;20.83;;;12.05;;
52838;SDS011;39219;53.678;9.856;2023-04-16T10:45:24;23.25;;;11.88;;
52838;SDS011;39219;53.678;9.856;2023-04-16T10:47:54;20.63;;;11.93;;
52838;SDS011;39219;53.678;9.856;2023-04-16T10:50:21;20.58;;;11.55;;
52838;SDS011;39219;53.678;9.856;2023-04-16T10:52:47;20.80;;;12.13;;
52838;SDS011;39219;53.678;9.856;2023-04-16T10:55:14;21.55;;;12.20;;
52838;SDS011;39219;53.678;9.856;2023-04-16T10:57:42;22.40;;;12.18;;
52838;SDS011;39219;53.678;9.856;2023-04-16T11:00:21;20.38;;;12.07;;
52838;SDS011;39219;53.678;9.856;2023-04-16T11:02:51;21.35;;;12.35;;
52838;SDS011;39219;53.678;9.856;2023-04-16T11:05:20;19.67;;;12.38;;
52838;SDS011;39219;53.678;9.856;2023-04-16T11:07:47;19.73;;;11.60;;
52838;SDS011;39219;53.678;9.856;2023-04-16T11:10:14;22.85;;;12.48;;
52838;SDS011;39219;53.678;9.856;2023-04-16T11:12:41;20.98;;;12.27;;
52838;SDS011;39219;53.678;9.856;2023-04-16T11:15:09;19.92;;;11.90;;
52838;SDS011;39219;53.678;9.856;2023-04-16T11:17:38;21.30;;;12.30;;
52838;SDS011;39219;53.678;9.856;2023-04-16T11:20:07;21.52;;;12.20;;
52838;SDS011;39219;53.678;9.856;2023-04-16T11:22:35;19.27;;;12.05;;
52838;SDS011;39219;53.678;9.856;2023-04-16T11:25:02;21.15;;;12.52;;
52838;SDS011;39219;53.678;9.856;2023-04-16T11:27:29;21.63;;;12.02;;
52838;SDS011;39219;53.678;9.856;2023-04-16T11:29:56;19.17;;;12.20;;
52838;SDS011;39219;53.678;9.856;2023-04-16T11:32:23;22.48;;;12.73;;
52838;SDS011;39219;53.678;9.856;2023-04-16T11:34:51;21.58;;;12.15;;
52838;SDS011;39219;53.678;9.856;2023-04-16T11:37:19;21.52;;;12.73;;
52838;SDS011;39219;53.678;9.856;2023-04-16T11:39:49;21.08;;;12.70;;
52838;SDS011;39219;53.678;9.856;2023-04-16T11:42:20;23.08;;;12.75;;
52838;SDS011;39219;53.678;9.856;2023-04-16T11:44:50;19.98;;;12.77;;
52838;SDS011;39219;53.678;9.856;2023-04-16T11:47:18;22.27;;;12.70;;
52838;SDS011;39219;53.678;9.856;2023-04-16T11:49:45;23.17;;;13.75;;
52838;SDS011;39219;53.678;9.856;2023-04-16T11:52:13;22.27;;;12.60;;
52838;SDS011;39219;53.678;9.856;2023-04-16T11:54:49;24.50;;;13.25;;
52838;SDS011;39219;53.678;9.856;2023-04-16T11:57:22;21.70;;;12.25;;
52838;SDS011;39219;53.678;9.856;2023-04-16T11:59:49;24.23;;;13.68;;
52838;SDS011;39219;53.678;9.856;2023-04-16T12:02:16;22.05;;;13.38;;
52838;SDS011;39219;53.678;9.856;2023-04-16T12:04:42;23.33;;;13.35;;
52838;SDS011;39219;53.678;9.856;2023-04-16T12:07:09;21.95;;;13.40;;
52838;SDS011;39219;53.678;9.856;2023-04-16T12:09:39;24.23;;;13.68;;
52838;SDS011;39219;53.678;9.856;2023-04-16T12:14:51;25.00;;;13.95;;
52838;SDS011;39219;53.678;9.856;2023-04-16T12:17:18;22.20;;;13.27;;
52838;SDS011;39219;53.678;9.856;2023-04-16T12:19:48;22.38;;;13.43;;
52838;SDS011;39219;53.678;9.856;2023-04-16T12:22:15;23.30;;;13.93;;
52838;SDS011;39219;53.678;9.856;2023-04-16T12:24:43;26.23;;;13.43;;
52838;SDS011;39219;53.678;9.856;2023-04-16T12:27:10;24.00;;;13.48;;
52838;SDS011;39219;53.678;9.856;2023-04-16T12:29:37;26.00;;;13.82;;
52838;SDS011;39219;53.678;9.856;2023-04-16T12:32:03;22.77;;;13.90;;
52838;SDS011;39219;53.678;9.856;2023-04-16T12:34:30;25.00;;;13.82;;
52838;SDS011;39219;53.678;9.856;2023-04-16T12:37:04;25.58;;;13.48;;
52838;SDS011;39219;53.678;9.856;2023-04-16T12:41:59;25.98;;;13.57;;
52838;SDS011;39219;53.678;9.856;2023-04-16T12:44:27;23.60;;;13.98;;
52838;SDS011;39219;53.678;9.856;2023-04-16T12:46:54;21.48;;;12.90;;
52838;SDS011;39219;53.678;9.856;2023-04-16T12:49:20;24.02;;;13.32;;
52838;SDS011;39219;53.678;9.856;2023-04-16T12:51:47;25.00;;;13.65;;
52838;SDS011;39219;53.678;9.856;2023-04-16T12:54:14;22.83;;;13.75;;
52838;SDS011;39219;53.678;9.856;2023-04-16T12:56:40;24.13;;;13.75;;
52838;SDS011;39219;53.678;9.856;2023-04-16T12:59:08;23.23;;;13.70;;
52838;SDS011;39219;53.678;9.856;2023-04-16T13:01:34;24.05;;;12.75;;
52838;SDS011;39219;53.678;9.856;2023-04-16T13:04:01;22.95;;;13.45;;
52838;SDS011;39219;53.678;9.856;2023-04-16T13:06:28;22.25;;;13.32;;
52838;SDS011;39219;53.678;9.856;2023-04-16T13:08:55;22.23;;;13.45;;
52838;SDS011;39219;53.678;9.856;2023-04-16T13:11:21;22.45;;;13.35;;
52838;SDS011;39219;53.678;9.856;2023-04-16T13:13:48;22.83;;;13.30;;
52838;SDS011;39219;53.678;9.856;2023-04-16T13:16:16;23.30;;;13.75;;
52838;SDS011;39219;53.678;9.856;2023-04-16T13:18:42;26.35;;;13.70;;
52838;SDS011;39219;53.678;9.856;2023-04-16T13:21:09;23.00;;;13.65;;
52838;SDS011;39219;53.678;9.856;2023-04-16T13:23:36;22.02;;;13.55;;
52838;SDS011;39219;53.678;9.856;2023-04-16T13:26:02;24.13;;;13.90;;
52838;SDS011;39219;53.678;9.856;2023-04-16T13:28:29;21.67;;;13.55;;
52838;SDS011;39219;53.678;9.856;2023-04-16T13:30:56;22.42;;;13.70;;
52838;SDS011;39219;53.678;9.856;2023-04-16T13:33:24;23.10;;;13.38;;
52838;SDS011;39219;53.678;9.856;2023-04-16T13:35:50;22.52;;;13.07;;
52838;SDS011;39219;53.678;9.856;2023-04-16T13:38:17;22.95;;;13.60;;
52838;SDS011;39219;53.678;9.856;2023-04-16T13:40:44;22.20;;;13.48;;
52838;SDS011;39219;53.678;9.856;2023-04-16T13:43:10;25.20;;;13.85;;
52838;SDS011;39219;53.678;9.856;2023-04-16T13:45:37;22.83;;;13.35;;
52838;SDS011;39219;53.678;9.856;2023-04-16T13:48:04;24.50;;;13.35;;
52838;SDS011;39219;53.678;9.856;2023-04-16T13:50:32;24.17;;;13.45;;
52838;SDS011;39219;53.678;9.856;2023-04-16T13:52:59;20.73;;;13.23;;
52838;SDS011;39219;53.678;9.856;2023-04-16T13:55:26;21.38;;;13.00;;
52838;SDS011;39219;53.678;9.856;2023-04-16T13:57:53;20.98;;;12.40;;
52838;SDS011;39219;53.678;9.856;2023-04-16T14:00:20;24.63;;;13.18;;
52838;SDS011;39219;53.678;9.856;2023-04-16T14:02:47;20.00;;;12.48;;
52838;SDS011;39219;53.678;9.856;2023-04-16T14:05:13;21.58;;;12.80;;
52838;SDS011;39219;53.678;9.856;2023-04-16T14:07:41;21.10;;;12.65;;
52838;SDS011;39219;53.678;9.856;2023-04-16T14:10:08;20.55;;;12.48;;
52838;SDS011;39219;53.678;9.856;2023-04-16T14:12:35;22.27;;;12.52;;
52838;SDS011;39219;53.678;9.856;2023-04-16T14:15:02;21.52;;;13.15;;
52838;SDS011;39219;53.678;9.856;2023-04-16T14:17:30;20.83;;;13.00;;
52838;SDS011;39219;53.678;9.856;2023-04-16T14:19:57;21.92;;;12.70;;
52838;SDS011;39219;53.678;9.856;2023-04-16T14:22:23;23.08;;;13.52;;
52838;SDS011;39219;53.678;9.856;2023-04-16T14:24:51;21.65;;;13.30;;
52838;SDS011;39219;53.678;9.856;2023-04-16T14:27:17;20.70;;;12.75;;
52838;SDS011;39219;53.678;9.856;2023-04-16T14:29:44;22.55;;;12.75;;
52838;SDS011;39219;53.678;9.856;2023-04-16T14:32:11;19.60;;;12.77;;